Terminal Aerodrome Forecast
Issued by NWS

Home | Current Version | Previous Version | Text Only | Print | Product List | Glossary On
Versions: 1 2 3 4 5 6 7 8 9 10 11 12 13 14 15 16 17 18 19 20 21 22 23 24 25
000
FTUS43 KGRR 240500
TAFBTL
TAF
KBTL 240540Z 2406/2506 15011KT 5SM RA BR OVC009
     FM240800 19010KT 4SM -RA BR OVC004
     FM241800 21017G27KT 2SM -DZ BR OVC009
     FM242300 24015G25KT 5SM -SHSN BR BKN015=

USA.gov is the U.S. government's official web portal to all federal, state and local government web resources and services.